createdAt,value
2018-01-03T00:00:28.804Z,52.40
2018-01-03T00:01:33.610Z,52.40
2018-01-03T00:02:38.482Z,52.40
2018-01-03T00:03:43.708Z,52.40
2018-01-03T00:04:48.747Z,52.40
2018-01-03T00:05:53.545Z,52.40
2018-01-03T00:06:58.303Z,52.40
2018-01-03T00:08:03.312Z,52.40
2018-01-03T00:09:08.057Z,52.40
2018-01-03T00:10:13.037Z,52.40
2018-01-03T00:11:19.013Z,52.40
2018-01-03T00:12:24.097Z,52.40
2018-01-03T00:13:28.857Z,52.40
2018-01-03T00:14:33.837Z,52.40
2018-01-03T00:15:38.841Z,52.50
2018-01-03T00:16:43.821Z,52.40
2018-01-03T00:17:48.710Z,52.40
2018-01-03T00:18:53.648Z,52.40
2018-01-03T00:19:58.690Z,52.40
2018-01-03T00:21:03.769Z,52.40
2018-01-03T00:22:09.388Z,52.50
2018-01-03T00:23:14.404Z,52.40
2018-01-03T00:24:19.260Z,52.40
2018-01-03T00:25:24.892Z,52.40
2018-01-03T00:26:29.875Z,52.40
2018-01-03T00:27:34.973Z,52.50
2018-01-03T00:28:39.890Z,52.40
2018-01-03T00:29:44.787Z,52.40
2018-01-03T00:30:49.717Z,52.40
2018-01-03T00:31:54.538Z,52.40
2018-01-03T00:32:59.446Z,52.40
2018-01-03T00:34:04.341Z,52.40
2018-01-03T00:35:09.271Z,52.50
2018-01-03T00:36:14.146Z,52.40
2018-01-03T00:37:18.893Z,52.40
2018-01-03T00:38:23.682Z,52.40
2018-01-03T00:39:28.632Z,52.40
2018-01-03T00:40:33.537Z,52.40
2018-01-03T00:41:38.998Z,52.40
2018-01-03T00:42:43.832Z,52.40
2018-01-03T00:43:48.737Z,52.40
2018-01-03T00:44:53.540Z,52.50
2018-01-03T00:45:58.366Z,52.40
2018-01-03T00:47:03.319Z,52.50
2018-01-03T00:48:08.737Z,52.50
2018-01-03T00:49:13.562Z,52.50
2018-01-03T00:50:18.453Z,52.50
2018-01-03T00:51:23.347Z,52.40
2018-01-03T00:52:28.228Z,52.50
2018-01-03T00:53:33.150Z,52.50
2018-01-03T00:54:38.216Z,52.50
2018-01-03T00:55:43.140Z,52.50
2018-01-03T00:56:48.095Z,52.50
2018-01-03T00:57:55.238Z,52.50
2018-01-03T00:59:01.999Z,52.50
2018-01-03T01:00:09.284Z,52.50
2018-01-03T01:01:16.223Z,52.60
2018-01-03T01:02:24.219Z,52.50
2018-01-03T01:03:31.919Z,52.50
2018-01-03T01:04:37.009Z,52.50
2018-01-03T01:05:43.686Z,52.40
2018-01-03T01:06:50.575Z,52.30
2018-01-03T01:07:57.329Z,52.40
2018-01-03T01:09:04.063Z,52.30
2018-01-03T01:10:10.978Z,52.20
2018-01-03T01:11:18.118Z,52.20
2018-01-03T01:12:24.609Z,52.20
2018-01-03T01:13:30.346Z,52.20
2018-01-03T01:14:35.747Z,52.20
2018-01-03T01:15:41.543Z,52.10
2018-01-03T01:16:47.243Z,52.20
2018-01-03T01:17:52.866Z,52.10
2018-01-03T01:18:58.135Z,52.20
2018-01-03T01:20:03.637Z,52.20
2018-01-03T01:21:08.945Z,52.20
2018-01-03T01:22:14.540Z,52.20
2018-01-03T01:23:20.260Z,52.20
2018-01-03T01:24:26.330Z,52.20
2018-01-03T01:25:31.961Z,52.20
2018-01-03T01:26:37.696Z,52.90
2018-01-03T01:27:44.659Z,52.20
2018-01-03T01:28:50.363Z,52.20
2018-01-03T01:29:56.272Z,52.20
2018-01-03T01:31:01.560Z,52.20
2018-01-03T01:32:07.180Z,52.20
2018-01-03T01:33:13.551Z,52.30
2018-01-03T01:34:20.319Z,52.30
2018-01-03T01:35:27.007Z,52.30
2018-01-03T01:36:33.491Z,52.30
2018-01-03T01:37:40.452Z,52.30
2018-01-03T01:38:47.198Z,52.30
2018-01-03T01:39:53.630Z,52.30
2018-01-03T01:41:00.443Z,52.40
2018-01-03T01:42:07.192Z,52.30
2018-01-03T01:43:12.742Z,52.30
2018-01-03T01:44:18.553Z,52.20
2018-01-03T01:45:23.646Z,52.20
2018-01-03T01:46:29.206Z,52.20
2018-01-03T01:47:34.070Z,52.20
2018-01-03T01:48:39.808Z,52.20
2018-01-03T01:49:45.708Z,52.20
2018-01-03T01:50:50.561Z,52.20
2018-01-03T01:51:55.439Z,52.20
2018-01-03T01:53:00.417Z,52.30
2018-01-03T01:54:05.285Z,52.30
2018-01-03T01:55:10.035Z,52.30
2018-01-03T01:56:14.860Z,52.30
2018-01-03T01:57:19.816Z,52.40
2018-01-03T01:58:24.786Z,52.40
2018-01-03T01:59:29.630Z,52.40
2018-01-03T02:00:34.613Z,52.50
2018-01-03T02:01:39.477Z,52.50
2018-01-03T02:02:44.353Z,52.50
2018-01-03T02:03:49.499Z,52.50
2018-01-03T02:04:54.439Z,52.50
2018-01-03T02:05:59.241Z,52.50
2018-01-03T02:07:04.052Z,52.50
2018-01-03T02:08:08.969Z,52.60
2018-01-03T02:09:13.851Z,52.60
2018-01-03T02:10:18.818Z,52.60
2018-01-03T02:11:23.595Z,52.60
2018-01-03T02:12:28.452Z,52.60
2018-01-03T02:13:33.215Z,52.60
2018-01-03T02:14:38.082Z,52.60
2018-01-03T02:15:42.972Z,52.60
2018-01-03T02:16:48.010Z,52.60
2018-01-03T02:17:53.127Z,52.60
2018-01-03T02:18:57.946Z,52.60
2018-01-03T02:20:03.016Z,52.60
2018-01-03T02:21:08.242Z,52.60
2018-01-03T02:22:13.032Z,52.70
2018-01-03T02:23:18.014Z,52.70
2018-01-03T02:24:23.014Z,52.60
2018-01-03T02:25:27.877Z,52.60
2018-01-03T02:26:33.387Z,52.70
2018-01-03T02:27:38.281Z,53.30
2018-01-03T02:28:43.118Z,52.60
2018-01-03T02:29:48.159Z,52.60
2018-01-03T02:30:53.168Z,52.60
2018-01-03T02:31:57.966Z,52.60
2018-01-03T02:33:02.980Z,52.60
2018-01-03T02:34:07.784Z,52.60
2018-01-03T02:35:12.641Z,52.60
2018-01-03T02:36:17.464Z,53.30
2018-01-03T02:37:22.361Z,52.70
2018-01-03T02:38:27.152Z,52.70
2018-01-03T02:39:32.356Z,52.60
2018-01-03T02:40:37.112Z,52.70
2018-01-03T02:41:42.077Z,52.70
2018-01-03T02:42:46.938Z,52.70
2018-01-03T02:43:51.908Z,52.70
2018-01-03T02:44:56.669Z,52.70
2018-01-03T02:46:01.465Z,52.70
2018-01-03T02:47:06.485Z,52.70
2018-01-03T02:48:11.359Z,52.70
2018-01-03T02:49:16.156Z,52.70
2018-01-03T02:50:20.917Z,52.70
2018-01-03T02:51:25.672Z,52.70
2018-01-03T02:52:30.617Z,52.70
2018-01-03T02:53:35.363Z,52.70
2018-01-03T02:54:40.153Z,52.70
2018-01-03T02:55:44.922Z,52.70
2018-01-03T02:56:49.680Z,52.70
2018-01-03T02:57:54.535Z,52.70
2018-01-03T02:58:59.410Z,52.70
2018-01-03T03:00:04.246Z,52.70
2018-01-03T03:01:09.545Z,52.70
2018-01-03T03:02:14.277Z,52.70
2018-01-03T03:03:19.164Z,52.70
2018-01-03T03:04:24.033Z,52.70
2018-01-03T03:05:28.852Z,52.70
2018-01-03T03:06:33.684Z,52.70
2018-01-03T03:07:38.527Z,52.70
2018-01-03T03:08:43.286Z,52.70
2018-01-03T03:09:48.171Z,52.70
2018-01-03T03:10:52.869Z,52.70
2018-01-03T03:11:57.964Z,52.70
2018-01-03T03:13:02.711Z,52.70
2018-01-03T03:14:07.487Z,52.70
2018-01-03T03:15:12.283Z,52.70
2018-01-03T03:16:17.048Z,52.70
2018-01-03T03:17:21.932Z,52.70
2018-01-03T03:18:26.774Z,52.70
2018-01-03T03:19:31.565Z,52.70
2018-01-03T03:20:36.366Z,52.70
2018-01-03T03:21:41.163Z,52.70
2018-01-03T03:22:45.964Z,52.70
2018-01-03T03:23:50.813Z,52.70
2018-01-03T03:24:55.578Z,52.70
2018-01-03T03:26:00.443Z,52.70
2018-01-03T03:27:05.757Z,52.60
2018-01-03T03:28:10.509Z,52.70
2018-01-03T03:29:15.235Z,52.70
2018-01-03T03:30:20.022Z,52.70
2018-01-03T03:31:24.744Z,52.70
2018-01-03T03:32:30.220Z,52.70
2018-01-03T03:33:35.187Z,52.70
2018-01-03T03:34:40.020Z,52.80
2018-01-03T03:35:44.955Z,52.70
2018-01-03T03:36:49.914Z,52.70
2018-01-03T03:37:55.314Z,52.70
2018-01-03T03:39:00.073Z,52.70
2018-01-03T03:40:05.819Z,52.70
2018-01-03T03:41:10.811Z,52.60
2018-01-03T03:42:15.791Z,52.60
2018-01-03T03:43:20.806Z,52.70
2018-01-03T03:44:25.738Z,52.70
2018-01-03T03:45:30.617Z,52.70
2018-01-03T03:46:35.873Z,52.70
2018-01-03T03:47:40.708Z,52.80
2018-01-03T03:48:45.523Z,52.80
2018-01-03T03:49:50.438Z,52.70
2018-01-03T03:50:55.161Z,52.70
2018-01-03T03:51:59.997Z,52.80
2018-01-03T03:53:04.884Z,52.70
2018-01-03T03:54:09.909Z,52.70
2018-01-03T03:55:14.875Z,52.70
2018-01-03T03:56:19.588Z,52.70
2018-01-03T03:57:24.431Z,52.80
2018-01-03T03:58:29.420Z,52.70
2018-01-03T03:59:34.405Z,52.80
2018-01-03T04:00:39.216Z,52.70
2018-01-03T04:01:44.120Z,52.80
2018-01-03T04:02:48.986Z,52.80
2018-01-03T04:03:53.887Z,52.80
2018-01-03T04:04:58.720Z,52.70
2018-01-03T04:06:03.748Z,52.80
2018-01-03T04:07:08.717Z,52.80
2018-01-03T04:08:13.725Z,52.80
2018-01-03T04:09:18.673Z,52.90
2018-01-03T04:10:23.567Z,53.00
2018-01-03T04:11:28.376Z,52.90
2018-01-03T04:12:33.297Z,52.90
2018-01-03T04:13:38.084Z,52.90
2018-01-03T04:14:42.789Z,52.90
2018-01-03T04:15:47.681Z,52.90
2018-01-03T04:16:52.384Z,53.60
2018-01-03T04:17:57.087Z,52.90
2018-01-03T04:19:01.963Z,53.10
2018-01-03T04:20:06.811Z,53.00
2018-01-03T04:21:11.698Z,52.90
2018-01-03T04:22:16.513Z,53.00
2018-01-03T04:23:21.380Z,53.10
2018-01-03T04:24:26.137Z,52.90
2018-01-03T04:25:30.972Z,53.00
2018-01-03T04:26:35.719Z,52.90
2018-01-03T04:27:40.660Z,53.10
2018-01-03T04:28:45.445Z,52.90
2018-01-03T04:29:50.343Z,53.00
2018-01-03T04:30:55.343Z,53.00
2018-01-03T04:32:00.866Z,53.00
2018-01-03T04:33:05.827Z,53.00
2018-01-03T04:34:10.711Z,52.90
2018-01-03T04:35:15.500Z,53.00
2018-01-03T04:36:21.540Z,53.00
2018-01-03T04:37:26.438Z,52.80
2018-01-03T04:38:31.407Z,53.00
2018-01-03T04:39:36.318Z,52.80
2018-01-03T04:40:41.177Z,53.00
2018-01-03T04:41:46.077Z,52.90
2018-01-03T04:42:50.864Z,52.90
2018-01-03T04:43:55.817Z,52.80
2018-01-03T04:45:00.709Z,52.80
2018-01-03T04:46:05.701Z,52.90
2018-01-03T04:47:10.713Z,52.90
2018-01-03T04:48:15.461Z,52.80
2018-01-03T04:49:20.249Z,52.70
2018-01-03T04:50:25.232Z,52.70
2018-01-03T04:51:30.037Z,52.70
2018-01-03T04:52:34.820Z,52.80
2018-01-03T04:53:39.682Z,53.30
2018-01-03T04:54:44.568Z,52.70
2018-01-03T04:55:49.542Z,52.70
2018-01-03T04:56:54.364Z,52.70
2018-01-03T04:57:59.228Z,52.70
2018-01-03T04:59:03.986Z,52.60
2018-01-03T05:00:08.822Z,52.70
2018-01-03T05:01:13.798Z,52.70
2018-01-03T05:02:18.874Z,52.60
2018-01-03T05:03:24.644Z,52.60
2018-01-03T05:04:29.641Z,52.60
2018-01-03T05:05:34.532Z,52.70
2018-01-03T05:06:39.244Z,52.60
2018-01-03T05:07:44.155Z,52.60
2018-01-03T05:08:49.181Z,52.60
2018-01-03T05:09:53.996Z,52.60
2018-01-03T05:10:59.524Z,52.50
2018-01-03T05:12:04.411Z,52.50
2018-01-03T05:13:09.161Z,52.50
2018-01-03T05:14:14.111Z,52.50
2018-01-03T05:15:18.920Z,52.50
2018-01-03T05:16:24.074Z,52.50
2018-01-03T05:17:28.832Z,52.50
2018-01-03T05:18:33.612Z,52.50
2018-01-03T05:19:38.499Z,52.50
2018-01-03T05:20:43.392Z,52.50
2018-01-03T05:21:48.344Z,52.50
2018-01-03T05:22:53.272Z,52.50
2018-01-03T05:23:58.130Z,52.40
2018-01-03T05:25:03.155Z,52.40
2018-01-03T05:26:07.915Z,52.40
2018-01-03T05:27:12.824Z,52.40
2018-01-03T05:28:17.712Z,52.40
2018-01-03T05:29:22.503Z,52.40
2018-01-03T05:30:27.326Z,52.40
2018-01-03T05:31:32.279Z,52.40
2018-01-03T05:32:37.202Z,52.40
2018-01-03T05:33:42.061Z,52.40
2018-01-03T05:34:46.852Z,52.40
2018-01-03T05:35:51.759Z,52.40
2018-01-03T05:36:56.688Z,52.40
2018-01-03T05:38:01.510Z,52.40
2018-01-03T05:39:06.600Z,52.40
2018-01-03T05:40:11.394Z,52.30
2018-01-03T05:41:16.222Z,52.30
2018-01-03T05:42:21.182Z,52.30
2018-01-03T05:43:26.431Z,52.30
2018-01-03T05:44:31.317Z,52.30
2018-01-03T05:45:36.362Z,52.30
2018-01-03T05:46:41.175Z,52.40
2018-01-03T05:47:46.186Z,52.30
2018-01-03T05:48:51.009Z,52.30
2018-01-03T05:49:55.847Z,52.30
2018-01-03T05:51:00.791Z,52.30
2018-01-03T05:52:05.600Z,52.30
2018-01-03T05:53:10.450Z,52.30
2018-01-03T05:54:15.346Z,52.30
2018-01-03T05:55:20.125Z,52.30
2018-01-03T05:56:25.053Z,52.30
2018-01-03T05:57:30.215Z,52.30
2018-01-03T05:58:34.987Z,52.30
2018-01-03T05:59:39.925Z,52.30
2018-01-03T06:00:44.744Z,52.20
2018-01-03T06:01:49.659Z,52.20
2018-01-03T06:02:54.488Z,52.20
2018-01-03T06:03:59.335Z,52.30
2018-01-03T06:05:04.189Z,52.20
2018-01-03T06:06:09.079Z,52.20
2018-01-03T06:07:14.023Z,52.20
2018-01-03T06:08:19.024Z,52.30
2018-01-03T06:09:24.035Z,52.20
2018-01-03T06:10:28.955Z,52.20
2018-01-03T06:11:33.983Z,52.20
2018-01-03T06:12:38.862Z,52.20
2018-01-03T06:13:43.724Z,52.20
2018-01-03T06:14:48.703Z,52.20
2018-01-03T06:15:53.812Z,52.20
2018-01-03T06:16:58.750Z,52.20
2018-01-03T06:18:03.555Z,52.20
2018-01-03T06:19:08.375Z,52.20
2018-01-03T06:20:13.296Z,52.20
2018-01-03T06:21:18.264Z,52.20
2018-01-03T06:22:23.224Z,52.20
2018-01-03T06:23:28.062Z,52.20
2018-01-03T06:24:33.147Z,52.10
2018-01-03T06:25:38.111Z,52.10
2018-01-03T06:26:42.904Z,52.20
2018-01-03T06:27:47.789Z,52.20
2018-01-03T06:28:52.709Z,52.10
2018-01-03T06:29:57.493Z,52.10
2018-01-03T06:31:02.487Z,52.10
2018-01-03T06:32:07.444Z,52.10
2018-01-03T06:33:12.454Z,52.10
2018-01-03T06:34:17.621Z,52.10
2018-01-03T06:35:22.497Z,52.20
2018-01-03T06:36:27.435Z,52.10
2018-01-03T06:37:32.217Z,52.10
2018-01-03T06:38:37.207Z,52.10
2018-01-03T06:39:42.265Z,52.10
2018-01-03T06:40:47.087Z,52.10
2018-01-03T06:41:52.020Z,52.10
2018-01-03T06:42:56.801Z,52.10
2018-01-03T06:44:01.592Z,52.10
2018-01-03T06:45:06.445Z,52.10
2018-01-03T06:46:11.454Z,52.10
2018-01-03T06:47:16.376Z,52.10
2018-01-03T06:48:21.207Z,52.10
2018-01-03T06:49:26.121Z,52.10
2018-01-03T06:50:31.015Z,52.10
2018-01-03T06:51:35.856Z,52.20
2018-01-03T06:52:41.420Z,52.10
2018-01-03T06:53:46.904Z,52.10
2018-01-03T06:54:51.878Z,52.10
2018-01-03T06:55:56.894Z,52.10
2018-01-03T06:57:01.845Z,52.10
2018-01-03T06:58:06.853Z,52.00
2018-01-03T06:59:11.892Z,52.00
2018-01-03T07:00:16.991Z,52.00
2018-01-03T07:01:21.996Z,52.10
2018-01-03T07:02:26.987Z,52.00
2018-01-03T07:03:31.929Z,52.10
2018-01-03T07:04:36.715Z,52.00
2018-01-03T07:05:41.550Z,52.00
2018-01-03T07:06:46.652Z,52.00
2018-01-03T07:07:51.563Z,52.00
2018-01-03T07:08:56.488Z,52.00
2018-01-03T07:10:01.476Z,52.10
2018-01-03T07:11:06.658Z,52.10
2018-01-03T07:12:11.710Z,52.10
2018-01-03T07:13:17.401Z,52.00
2018-01-03T07:14:23.074Z,52.10
2018-01-03T07:15:27.893Z,52.00
2018-01-03T07:16:32.852Z,52.00
2018-01-03T07:17:37.816Z,52.00
2018-01-03T07:18:42.742Z,52.00
2018-01-03T07:19:47.687Z,52.00
2018-01-03T07:20:52.660Z,51.90
2018-01-03T07:21:57.581Z,52.00
2018-01-03T07:23:02.452Z,52.00
2018-01-03T07:24:07.210Z,52.00
2018-01-03T07:25:12.059Z,52.00
2018-01-03T07:26:17.099Z,52.00
2018-01-03T07:27:21.986Z,52.10
2018-01-03T07:28:27.003Z,52.10
2018-01-03T07:29:31.884Z,52.10
2018-01-03T07:30:36.638Z,52.10
2018-01-03T07:31:41.544Z,52.10
2018-01-03T07:32:46.786Z,52.10
2018-01-03T07:33:51.715Z,52.10
2018-01-03T07:34:56.568Z,52.10
2018-01-03T07:36:01.528Z,52.10
2018-01-03T07:37:06.453Z,52.10
2018-01-03T07:38:11.383Z,52.20
2018-01-03T07:39:16.311Z,52.10
2018-01-03T07:40:21.102Z,52.10
2018-01-03T07:41:26.010Z,52.10
2018-01-03T07:42:30.932Z,52.10
2018-01-03T07:43:35.781Z,52.10
2018-01-03T07:44:40.719Z,52.10
2018-01-03T07:45:45.599Z,52.10
2018-01-03T07:46:50.431Z,52.10
2018-01-03T07:47:55.631Z,52.10
2018-01-03T07:49:00.630Z,52.10
2018-01-03T07:50:05.468Z,52.10
2018-01-03T07:51:10.407Z,52.50
2018-01-03T07:52:15.469Z,52.10
2018-01-03T07:53:20.415Z,52.10
2018-01-03T07:54:25.500Z,52.10
2018-01-03T07:55:30.498Z,52.10
2018-01-03T07:56:35.555Z,52.10
2018-01-03T07:57:40.492Z,52.70
2018-01-03T07:58:45.599Z,52.10
2018-01-03T07:59:50.551Z,52.10
2018-01-03T08:00:55.403Z,52.10
2018-01-03T08:02:00.478Z,52.10
2018-01-03T08:03:05.250Z,52.10
2018-01-03T08:04:10.265Z,52.10
2018-01-03T08:05:15.615Z,52.10
2018-01-03T08:06:20.881Z,52.10
2018-01-03T08:07:25.924Z,52.10
2018-01-03T08:08:31.037Z,52.10
2018-01-03T08:09:35.943Z,52.10
2018-01-03T08:10:41.148Z,52.10
2018-01-03T08:11:46.117Z,52.20
2018-01-03T08:12:51.245Z,52.20
2018-01-03T08:13:56.152Z,52.30
2018-01-03T08:15:01.277Z,52.40
2018-01-03T08:16:06.215Z,52.50
2018-01-03T08:17:11.136Z,52.60
2018-01-03T08:18:16.088Z,52.70
2018-01-03T08:19:21.201Z,52.80
2018-01-03T08:20:26.114Z,52.80
2018-01-03T08:21:31.225Z,52.90
2018-01-03T08:22:37.099Z,52.90
2018-01-03T08:23:41.896Z,53.00
2018-01-03T08:24:46.636Z,52.10
2018-01-03T08:25:51.467Z,50.90
2018-01-03T08:26:56.437Z,50.10
2018-01-03T08:28:01.473Z,49.80
2018-01-03T08:29:06.480Z,49.60
2018-01-03T08:30:11.302Z,49.40
2018-01-03T08:31:16.195Z,49.20
2018-01-03T08:32:21.074Z,48.70
2018-01-03T08:33:26.120Z,48.50
2018-01-03T08:34:31.696Z,48.00
2018-01-03T08:35:36.628Z,47.80
2018-01-03T08:36:42.393Z,47.90
2018-01-03T08:37:47.788Z,47.80
2018-01-03T08:38:53.625Z,47.50
2018-01-03T08:39:58.686Z,47.50
2018-01-03T08:41:04.129Z,47.80
2018-01-03T08:42:09.099Z,47.90
2018-01-03T08:43:14.282Z,48.00
2018-01-03T08:44:19.235Z,48.10
2018-01-03T08:45:24.142Z,48.30
2018-01-03T08:46:31.384Z,48.40
2018-01-03T08:47:36.966Z,48.60
2018-01-03T08:48:41.841Z,48.70
2018-01-03T08:49:46.979Z,48.70
2018-01-03T08:50:51.887Z,48.80
2018-01-03T08:51:56.720Z,48.80
2018-01-03T08:53:02.034Z,49.00
2018-01-03T08:54:06.942Z,49.00
2018-01-03T08:55:12.086Z,49.00
2018-01-03T08:56:17.360Z,49.10
2018-01-03T08:57:22.309Z,49.20
2018-01-03T08:58:27.275Z,49.20
2018-01-03T08:59:32.121Z,49.20
2018-01-03T09:00:37.042Z,49.30
2018-01-03T09:01:41.952Z,49.30
2018-01-03T09:02:46.846Z,49.40
2018-01-03T09:03:51.783Z,49.40
2018-01-03T09:04:56.816Z,49.50
2018-01-03T09:06:01.876Z,49.50
2018-01-03T09:07:07.146Z,49.50
2018-01-03T09:08:11.996Z,49.50
2018-01-03T09:09:16.887Z,49.60
2018-01-03T09:10:22.162Z,49.70
2018-01-03T09:11:28.008Z,49.70
2018-01-03T09:12:33.262Z,49.80
2018-01-03T09:13:38.342Z,49.80
2018-01-03T09:14:43.377Z,49.80
2018-01-03T09:15:48.395Z,49.80
2018-01-03T09:16:53.356Z,49.80
2018-01-03T09:17:58.382Z,49.80
2018-01-03T09:19:03.518Z,49.80
2018-01-03T09:20:08.462Z,49.90
2018-01-03T09:21:13.584Z,50.00
2018-01-03T09:22:18.452Z,50.00
2018-01-03T09:23:23.546Z,50.60
2018-01-03T09:24:28.556Z,50.10
2018-01-03T09:25:33.717Z,50.10
2018-01-03T09:26:38.690Z,50.10
2018-01-03T09:27:43.885Z,50.20
2018-01-03T09:28:48.939Z,50.10
2018-01-03T09:29:53.949Z,50.10
2018-01-03T09:30:59.053Z,50.10
2018-01-03T09:32:04.240Z,50.20
2018-01-03T09:33:09.198Z,50.20
2018-01-03T09:34:15.163Z,50.20
2018-01-03T09:35:20.171Z,50.30
2018-01-03T09:36:25.097Z,50.30
2018-01-03T09:37:30.135Z,50.30
2018-01-03T09:38:35.116Z,50.20
2018-01-03T09:39:39.965Z,50.40
2018-01-03T09:40:44.933Z,50.40
2018-01-03T09:41:49.970Z,50.50
2018-01-03T09:42:54.948Z,50.50
2018-01-03T09:44:00.195Z,50.50
2018-01-03T09:45:05.282Z,50.60
2018-01-03T09:46:10.203Z,50.50
2018-01-03T09:47:15.212Z,50.60
2018-01-03T09:48:20.193Z,50.60
2018-01-03T09:49:25.138Z,50.60
2018-01-03T09:50:30.025Z,50.60
2018-01-03T09:51:34.851Z,50.60
2018-01-03T09:52:39.806Z,50.60
2018-01-03T09:53:44.946Z,51.30
2018-01-03T09:54:49.929Z,50.60
2018-01-03T09:55:54.899Z,50.70
2018-01-03T09:56:59.799Z,50.80
2018-01-03T09:58:04.589Z,50.80
2018-01-03T09:59:09.476Z,50.80
2018-01-03T10:00:14.630Z,50.80
2018-01-03T10:01:19.562Z,50.80
2018-01-03T10:02:24.428Z,50.90
2018-01-03T10:03:29.530Z,50.80
2018-01-03T10:04:34.799Z,50.70
2018-01-03T10:05:39.880Z,50.60
2018-01-03T10:06:44.892Z,50.60
2018-01-03T10:07:49.991Z,50.60
2018-01-03T10:08:54.914Z,50.60
2018-01-03T10:09:59.932Z,50.60
2018-01-03T10:11:04.961Z,50.60
2018-01-03T10:12:09.953Z,50.50
2018-01-03T10:13:14.969Z,50.50
2018-01-03T10:14:20.084Z,50.50
2018-01-03T10:15:24.991Z,50.40
2018-01-03T10:16:29.967Z,50.50
2018-01-03T10:17:35.531Z,50.40
2018-01-03T10:18:40.676Z,50.40
2018-01-03T10:19:45.573Z,50.60
2018-01-03T10:20:50.567Z,50.70
2018-01-03T10:21:55.437Z,50.90
2018-01-03T10:23:00.249Z,50.90
2018-01-03T10:24:05.161Z,51.10
2018-01-03T10:25:09.967Z,51.00
2018-01-03T10:26:14.990Z,51.10
2018-01-03T10:27:20.077Z,51.10
2018-01-03T10:28:25.007Z,51.10
2018-01-03T10:29:29.944Z,51.10
2018-01-03T10:30:34.946Z,51.10
2018-01-03T10:31:39.919Z,51.10
2018-01-03T10:32:45.175Z,51.10
2018-01-03T10:33:50.065Z,51.20
2018-01-03T10:34:55.016Z,51.40
2018-01-03T10:36:01.775Z,51.40
2018-01-03T10:37:06.917Z,51.30
2018-01-03T10:38:12.243Z,51.30
2018-01-03T10:39:17.365Z,51.20
2018-01-03T10:40:22.422Z,51.10
2018-01-03T10:41:27.693Z,51.10
2018-01-03T10:42:32.638Z,51.20
2018-01-03T10:43:37.584Z,51.20
2018-01-03T10:44:42.723Z,51.40
2018-01-03T10:45:47.619Z,51.40
2018-01-03T10:46:52.563Z,51.30
2018-01-03T10:47:57.597Z,51.30
2018-01-03T10:49:02.609Z,51.60
2018-01-03T10:50:08.426Z,51.60
2018-01-03T10:51:13.485Z,51.60
2018-01-03T10:52:18.456Z,51.60
2018-01-03T10:53:23.345Z,51.50
2018-01-03T10:54:29.011Z,51.40
2018-01-03T10:55:34.412Z,51.40
2018-01-03T10:56:39.227Z,51.30
2018-01-03T10:57:44.267Z,51.20
2018-01-03T10:58:49.056Z,51.20
2018-01-03T10:59:54.104Z,51.30
2018-01-03T11:00:58.973Z,51.10
2018-01-03T11:02:03.957Z,51.10
2018-01-03T11:03:09.045Z,51.20
2018-01-03T11:04:14.721Z,51.20
2018-01-03T11:05:19.576Z,51.30
2018-01-03T11:06:24.719Z,51.30
2018-01-03T11:07:29.713Z,51.40
2018-01-03T11:08:34.758Z,51.40
2018-01-03T11:09:39.620Z,51.40
2018-01-03T11:10:44.537Z,51.40
2018-01-03T11:11:49.500Z,51.40
2018-01-03T11:12:54.373Z,51.50
2018-01-03T11:13:59.461Z,51.50
2018-01-03T11:15:04.444Z,51.60
2018-01-03T11:16:09.388Z,51.50
2018-01-03T11:17:14.249Z,51.60
2018-01-03T11:18:19.260Z,51.60
2018-01-03T11:19:24.302Z,51.60
2018-01-03T11:20:29.295Z,51.60
2018-01-03T11:21:34.362Z,51.60
2018-01-03T11:22:39.547Z,51.60
2018-01-03T11:23:44.430Z,51.70
2018-01-03T11:24:49.357Z,51.70
2018-01-03T11:25:54.201Z,51.70
2018-01-03T11:26:59.471Z,51.70
2018-01-03T11:28:04.626Z,51.70
2018-01-03T11:29:09.510Z,51.80
2018-01-03T11:30:14.605Z,51.80
2018-01-03T11:31:19.643Z,51.90
2018-01-03T11:32:24.624Z,52.00
2018-01-03T11:33:29.632Z,52.00
2018-01-03T11:34:34.593Z,52.00
2018-01-03T11:35:39.495Z,52.10
2018-01-03T11:36:44.460Z,52.10
2018-01-03T11:37:49.448Z,52.20
2018-01-03T11:38:54.283Z,52.20
2018-01-03T11:39:59.074Z,52.30
2018-01-03T11:41:03.989Z,52.30
2018-01-03T11:42:09.130Z,52.30
2018-01-03T11:43:14.055Z,52.30
2018-01-03T11:44:18.960Z,52.30
2018-01-03T11:45:23.991Z,52.30
2018-01-03T11:46:28.907Z,52.20
2018-01-03T11:47:33.975Z,52.20
2018-01-03T11:48:38.946Z,52.10
2018-01-03T11:49:43.792Z,52.10
2018-01-03T11:50:48.683Z,52.10
2018-01-03T11:51:53.636Z,52.10
2018-01-03T11:52:58.673Z,52.10
2018-01-03T11:54:03.592Z,52.10
2018-01-03T11:55:08.582Z,52.10
2018-01-03T11:56:19.749Z,52.10
2018-01-03T11:57:25.452Z,52.00
2018-01-03T11:58:30.686Z,52.00
2018-01-03T11:59:35.617Z,51.90
2018-01-03T12:00:41.588Z,51.90
2018-01-03T12:01:46.693Z,52.00
2018-01-03T12:02:51.693Z,52.00
2018-01-03T12:03:56.711Z,52.10
2018-01-03T12:05:01.550Z,52.00
2018-01-03T12:06:06.546Z,52.00
2018-01-03T12:07:11.642Z,52.00
2018-01-03T12:08:16.694Z,51.90
2018-01-03T12:09:21.483Z,52.00
2018-01-03T12:10:26.585Z,52.10
2018-01-03T12:11:31.598Z,50.30
2018-01-03T12:12:36.355Z,47.20
2018-01-03T12:13:41.132Z,45.80
2018-01-03T12:14:46.129Z,43.80
2018-01-03T12:15:51.124Z,43.50
2018-01-03T12:16:56.103Z,42.50
2018-01-03T12:18:01.159Z,43.40
2018-01-03T12:19:06.548Z,44.50
2018-01-03T12:20:11.584Z,45.30
2018-01-03T12:21:16.622Z,46.10
2018-01-03T12:22:21.537Z,46.60
2018-01-03T12:23:26.546Z,47.00
2018-01-03T12:24:31.616Z,47.20
2018-01-03T12:25:36.665Z,47.50
2018-01-03T12:26:41.950Z,47.60
2018-01-03T12:27:47.205Z,47.80
2018-01-03T12:28:52.093Z,47.80
2018-01-03T12:29:57.431Z,47.90
2018-01-03T12:31:02.553Z,48.00
2018-01-03T12:32:07.844Z,48.00
2018-01-03T12:33:12.604Z,48.10
2018-01-03T12:34:17.575Z,48.20
2018-01-03T12:35:22.478Z,48.20
2018-01-03T12:36:27.422Z,48.30
2018-01-03T12:37:32.425Z,48.30
2018-01-03T12:38:37.233Z,48.30
2018-01-03T12:39:42.203Z,48.40
2018-01-03T12:40:47.154Z,48.50
2018-01-03T12:41:52.219Z,48.50
2018-01-03T12:42:57.096Z,48.60
2018-01-03T12:44:02.009Z,48.60
2018-01-03T12:45:06.921Z,48.70
2018-01-03T12:46:11.724Z,48.70
2018-01-03T12:47:16.627Z,48.70
2018-01-03T12:48:21.555Z,48.70
2018-01-03T12:49:26.504Z,48.80
2018-01-03T12:50:31.446Z,48.80
2018-01-03T12:51:36.252Z,48.90
2018-01-03T12:52:41.178Z,48.90
2018-01-03T12:53:45.992Z,48.90
2018-01-03T12:54:50.781Z,49.00
2018-01-03T12:55:56.300Z,49.10
2018-01-03T12:57:01.223Z,49.10
2018-01-03T12:58:06.029Z,49.00
2018-01-03T12:59:11.060Z,49.00
2018-01-03T13:00:15.937Z,49.00
2018-01-03T13:01:20.905Z,49.10
2018-01-03T13:02:25.747Z,49.20
2018-01-03T13:03:30.792Z,49.20
2018-01-03T13:04:35.754Z,49.20
2018-01-03T13:05:40.787Z,49.20
2018-01-03T13:06:45.921Z,49.30
2018-01-03T13:07:51.630Z,49.40
2018-01-03T13:08:57.849Z,49.50
2018-01-03T13:10:03.253Z,49.70
2018-01-03T13:11:08.958Z,49.80
2018-01-03T13:12:15.039Z,49.80
2018-01-03T13:13:20.493Z,49.90
2018-01-03T13:14:25.317Z,50.00
2018-01-03T13:15:30.220Z,50.00
2018-01-03T13:16:35.432Z,50.10
2018-01-03T13:17:40.224Z,50.10
2018-01-03T13:18:45.181Z,50.20
2018-01-03T13:19:50.025Z,50.10
2018-01-03T13:20:55.255Z,50.20
2018-01-03T13:22:01.024Z,50.20
2018-01-03T13:23:06.225Z,50.30
2018-01-03T13:24:11.784Z,50.30
2018-01-03T13:25:17.433Z,50.40
2018-01-03T13:26:22.877Z,50.40
2018-01-03T13:27:28.786Z,50.60
2018-01-03T13:28:34.638Z,50.60
2018-01-03T13:29:40.456Z,50.50
2018-01-03T13:30:46.327Z,50.50
2018-01-03T13:31:51.991Z,50.50
2018-01-03T13:32:57.089Z,50.60
2018-01-03T13:34:01.990Z,50.60
2018-01-03T13:35:07.219Z,50.70
2018-01-03T13:36:12.372Z,50.70
2018-01-03T13:37:17.770Z,50.60
2018-01-03T13:38:22.833Z,50.70
2018-01-03T13:39:27.768Z,50.70
2018-01-03T13:40:32.611Z,50.80
2018-01-03T13:41:37.535Z,50.80
2018-01-03T13:42:42.558Z,50.80
2018-01-03T13:43:51.018Z,50.80
2018-01-03T13:44:57.073Z,50.80
2018-01-03T13:46:02.036Z,50.90
2018-01-03T13:47:07.329Z,50.90
2018-01-03T13:48:12.246Z,50.90
2018-01-03T13:49:17.050Z,50.90
2018-01-03T13:50:21.855Z,51.00
2018-01-03T13:51:26.741Z,51.00
2018-01-03T13:52:31.585Z,51.00
2018-01-03T13:53:36.477Z,51.00
2018-01-03T13:54:41.373Z,51.10
2018-01-03T13:55:46.175Z,51.10
2018-01-03T13:56:51.015Z,51.10
2018-01-03T13:57:55.802Z,51.10